sensor_id;sensor_type;location;lat;lon;timestamp;temperature;humidity
48946;DHT22;34999;50.940;3.998;2023-04-15T00:00:57;9.10;99.90
48946;DHT22;34999;50.940;3.998;2023-04-15T00:03:25;9.00;99.90
48946;DHT22;34999;50.940;3.998;2023-04-15T00:05:54;9.10;99.90
48946;DHT22;34999;50.940;3.998;2023-04-15T00:08:23;9.10;99.90
48946;DHT22;34999;50.940;3.998;2023-04-15T00:10:51;9.10;99.90
48946;DHT22;34999;50.940;3.998;2023-04-15T00:13:19;9.10;99.90
48946;DHT22;34999;50.940;3.998;2023-04-15T00:15:48;9.10;99.90
48946;DHT22;34999;50.940;3.998;2023-04-15T00:18:17;9.00;99.90
48946;DHT22;34999;50.940;3.998;2023-04-15T00:20:45;9.10;99.90
48946;DHT22;34999;50.940;3.998;2023-04-15T00:23:14;9.00;99.90
48946;DHT22;34999;50.940;3.998;2023-04-15T00:25:42;9.00;99.90
48946;DHT22;34999;50.940;3.998;2023-04-15T00:28:10;9.00;99.90
48946;DHT22;34999;50.940;3.998;2023-04-15T00:30:38;9.00;99.90
48946;DHT22;34999;50.940;3.998;2023-04-15T00:33:07;9.00;99.90
48946;DHT22;34999;50.940;3.998;2023-04-15T00:35:37;9.00;99.90
48946;DHT22;34999;50.940;3.998;2023-04-15T00:38:06;9.00;99.90
48946;DHT22;34999;50.940;3.998;2023-04-15T00:40:35;9.00;99.90
48946;DHT22;34999;50.940;3.998;2023-04-15T00:43:03;9.00;99.90
48946;DHT22;34999;50.940;3.998;2023-04-15T00:45:31;8.90;99.90
48946;DHT22;34999;50.940;3.998;2023-04-15T00:48:00;8.90;99.90
48946;DHT22;34999;50.940;3.998;2023-04-15T00:50:28;8.90;99.90
48946;DHT22;34999;50.940;3.998;2023-04-15T00:52:58;9.00;99.90
48946;DHT22;34999;50.940;3.998;2023-04-15T00:55:26;8.90;99.90
48946;DHT22;34999;50.940;3.998;2023-04-15T00:57:55;8.90;99.90
48946;DHT22;34999;50.940;3.998;2023-04-15T01:00:24;8.90;99.90
48946;DHT22;34999;50.940;3.998;2023-04-15T01:02:52;8.90;99.90
48946;DHT22;34999;50.940;3.998;2023-04-15T01:05:21;8.90;99.90
48946;DHT22;34999;50.940;3.998;2023-04-15T01:07:49;8.90;99.90
48946;DHT22;34999;50.940;3.998;2023-04-15T01:10:19;8.90;99.90
48946;DHT22;34999;50.940;3.998;2023-04-15T01:12:47;8.90;99.90
48946;DHT22;34999;50.940;3.998;2023-04-15T01:15:15;8.80;99.90
48946;DHT22;34999;50.940;3.998;2023-04-15T01:17:44;8.80;99.90
48946;DHT22;34999;50.940;3.998;2023-04-15T01:20:12;8.80;99.90
48946;DHT22;34999;50.940;3.998;2023-04-15T01:22:42;8.80;99.90
48946;DHT22;34999;50.940;3.998;2023-04-15T01:25:12;8.80;99.90
48946;DHT22;34999;50.940;3.998;2023-04-15T01:27:45;8.80;99.90
48946;DHT22;34999;50.940;3.998;2023-04-15T01:30:13;8.80;99.90
48946;DHT22;34999;50.940;3.998;2023-04-15T01:32:42;8.80;99.90
48946;DHT22;34999;50.940;3.998;2023-04-15T01:35:10;8.80;99.90
48946;DHT22;34999;50.940;3.998;2023-04-15T01:37:39;8.70;99.90
48946;DHT22;34999;50.940;3.998;2023-04-15T01:40:08;8.80;99.90
48946;DHT22;34999;50.940;3.998;2023-04-15T01:42:36;8.80;99.90
48946;DHT22;34999;50.940;3.998;2023-04-15T01:45:08;8.80;99.90
48946;DHT22;34999;50.940;3.998;2023-04-15T01:47:36;8.80;99.90
48946;DHT22;34999;50.940;3.998;2023-04-15T01:50:05;8.70;99.90
48946;DHT22;34999;50.940;3.998;2023-04-15T01:52:34;8.70;99.90
48946;DHT22;34999;50.940;3.998;2023-04-15T01:55:02;8.70;99.90
48946;DHT22;34999;50.940;3.998;2023-04-15T01:57:32;8.70;99.90
48946;DHT22;34999;50.940;3.998;2023-04-15T02:00:00;8.70;99.90
48946;DHT22;34999;50.940;3.998;2023-04-15T02:02:30;8.70;99.90
48946;DHT22;34999;50.940;3.998;2023-04-15T02:04:59;8.70;99.90
48946;DHT22;34999;50.940;3.998;2023-04-15T02:07:27;8.70;99.90
48946;DHT22;34999;50.940;3.998;2023-04-15T02:09:58;8.70;99.90
48946;DHT22;34999;50.940;3.998;2023-04-15T02:12:26;8.70;99.90
48946;DHT22;34999;50.940;3.998;2023-04-15T02:14:54;8.70;99.90
48946;DHT22;34999;50.940;3.998;2023-04-15T02:17:22;8.70;99.90
48946;DHT22;34999;50.940;3.998;2023-04-15T02:19:52;8.60;99.90
48946;DHT22;34999;50.940;3.998;2023-04-15T02:22:21;8.60;99.90
48946;DHT22;34999;50.940;3.998;2023-04-15T02:24:49;8.60;99.90
48946;DHT22;34999;50.940;3.998;2023-04-15T02:27:17;8.60;99.90
48946;DHT22;34999;50.940;3.998;2023-04-15T02:29:45;8.60;99.90
48946;DHT22;34999;50.940;3.998;2023-04-15T02:32:14;8.60;99.90
48946;DHT22;34999;50.940;3.998;2023-04-15T02:34:42;8.60;99.90
48946;DHT22;34999;50.940;3.998;2023-04-15T02:37:13;8.60;99.90
48946;DHT22;34999;50.940;3.998;2023-04-15T02:39:41;8.50;99.90
48946;DHT22;34999;50.940;3.998;2023-04-15T02:42:09;8.50;99.90
48946;DHT22;34999;50.940;3.998;2023-04-15T02:44:38;8.50;99.90
48946;DHT22;34999;50.940;3.998;2023-04-15T02:47:07;8.50;99.90
48946;DHT22;34999;50.940;3.998;2023-04-15T02:49:37;8.50;99.90
48946;DHT22;34999;50.940;3.998;2023-04-15T02:52:06;8.50;99.90
48946;DHT22;34999;50.940;3.998;2023-04-15T02:54:35;8.50;99.90
48946;DHT22;34999;50.940;3.998;2023-04-15T02:57:04;8.60;99.90
48946;DHT22;34999;50.940;3.998;2023-04-15T02:59:32;8.50;99.90
48946;DHT22;34999;50.940;3.998;2023-04-15T03:02:00;8.50;99.90
48946;DHT22;34999;50.940;3.998;2023-04-15T03:04:29;8.50;99.90
48946;DHT22;34999;50.940;3.998;2023-04-15T03:06:57;8.50;99.90
48946;DHT22;34999;50.940;3.998;2023-04-15T03:09:26;8.50;99.90
48946;DHT22;34999;50.940;3.998;2023-04-15T03:11:56;8.50;99.90
48946;DHT22;34999;50.940;3.998;2023-04-15T03:14:24;8.50;99.90
48946;DHT22;34999;50.940;3.998;2023-04-15T03:16:53;8.50;99.90
48946;DHT22;34999;50.940;3.998;2023-04-15T03:19:21;8.50;99.90
48946;DHT22;34999;50.940;3.998;2023-04-15T03:21:49;8.50;99.90
48946;DHT22;34999;50.940;3.998;2023-04-15T03:24:17;8.50;99.90
48946;DHT22;34999;50.940;3.998;2023-04-15T03:26:46;8.50;99.90
48946;DHT22;34999;50.940;3.998;2023-04-15T03:29:15;8.50;99.90
48946;DHT22;34999;50.940;3.998;2023-04-15T03:31:43;8.50;99.90
48946;DHT22;34999;50.940;3.998;2023-04-15T03:34:12;8.40;99.90
48946;DHT22;34999;50.940;3.998;2023-04-15T03:36:40;8.40;99.90
48946;DHT22;34999;50.940;3.998;2023-04-15T03:39:08;8.40;99.90
48946;DHT22;34999;50.940;3.998;2023-04-15T03:41:36;8.40;99.90
48946;DHT22;34999;50.940;3.998;2023-04-15T03:44:05;8.40;99.90
48946;DHT22;34999;50.940;3.998;2023-04-15T03:46:35;8.40;99.90
48946;DHT22;34999;50.940;3.998;2023-04-15T03:49:03;8.40;99.90
48946;DHT22;34999;50.940;3.998;2023-04-15T03:51:32;8.40;99.90
48946;DHT22;34999;50.940;3.998;2023-04-15T03:54:00;8.40;99.90
48946;DHT22;34999;50.940;3.998;2023-04-15T03:56:29;8.40;99.90
48946;DHT22;34999;50.940;3.998;2023-04-15T03:58:57;8.40;99.90
48946;DHT22;34999;50.940;3.998;2023-04-15T04:01:26;8.40;99.90
48946;DHT22;34999;50.940;3.998;2023-04-15T04:03:55;8.40;99.90
48946;DHT22;34999;50.940;3.998;2023-04-15T04:06:24;8.40;99.90
48946;DHT22;34999;50.940;3.998;2023-04-15T04:08:52;8.40;99.90
48946;DHT22;34999;50.940;3.998;2023-04-15T04:11:20;8.40;99.90
48946;DHT22;34999;50.940;3.998;2023-04-15T04:13:48;8.40;99.90
48946;DHT22;34999;50.940;3.998;2023-04-15T04:16:16;8.30;99.90
48946;DHT22;34999;50.940;3.998;2023-04-15T04:18:45;8.30;99.90
48946;DHT22;34999;50.940;3.998;2023-04-15T04:21:14;8.20;99.90
48946;DHT22;34999;50.940;3.998;2023-04-15T04:23:43;8.30;99.90
48946;DHT22;34999;50.940;3.998;2023-04-15T04:26:11;8.30;99.90
48946;DHT22;34999;50.940;3.998;2023-04-15T04:28:39;8.30;99.90
48946;DHT22;34999;50.940;3.998;2023-04-15T04:31:07;8.30;99.90
48946;DHT22;34999;50.940;3.998;2023-04-15T04:33:35;8.30;99.90
48946;DHT22;34999;50.940;3.998;2023-04-15T04:36:04;8.30;99.90
48946;DHT22;34999;50.940;3.998;2023-04-15T04:38:34;8.30;99.90
48946;DHT22;34999;50.940;3.998;2023-04-15T04:41:02;8.30;99.90
48946;DHT22;34999;50.940;3.998;2023-04-15T04:43:30;8.30;99.90
48946;DHT22;34999;50.940;3.998;2023-04-15T04:45:58;8.30;99.90
48946;DHT22;34999;50.940;3.998;2023-04-15T04:48:27;8.30;99.90
48946;DHT22;34999;50.940;3.998;2023-04-15T04:50:55;8.30;99.90
48946;DHT22;34999;50.940;3.998;2023-04-15T04:53:24;8.30;99.90
48946;DHT22;34999;50.940;3.998;2023-04-15T04:55:53;8.30;99.90
48946;DHT22;34999;50.940;3.998;2023-04-15T04:58:22;8.30;99.90
48946;DHT22;34999;50.940;3.998;2023-04-15T05:00:50;8.30;99.90
48946;DHT22;34999;50.940;3.998;2023-04-15T05:03:18;8.30;99.90
48946;DHT22;34999;50.940;3.998;2023-04-15T05:05:47;8.30;99.90
48946;DHT22;34999;50.940;3.998;2023-04-15T05:08:16;8.30;99.90
48946;DHT22;34999;50.940;3.998;2023-04-15T05:10:44;8.30;99.90
48946;DHT22;34999;50.940;3.998;2023-04-15T05:13:14;8.30;99.90
48946;DHT22;34999;50.940;3.998;2023-04-15T05:15:42;8.30;99.90
48946;DHT22;34999;50.940;3.998;2023-04-15T05:18:11;8.30;99.90
48946;DHT22;34999;50.940;3.998;2023-04-15T05:20:39;8.30;99.90
48946;DHT22;34999;50.940;3.998;2023-04-15T05:23:08;8.30;99.90
48946;DHT22;34999;50.940;3.998;2023-04-15T05:25:36;8.40;99.90
48946;DHT22;34999;50.940;3.998;2023-04-15T05:28:04;8.40;99.90
48946;DHT22;34999;50.940;3.998;2023-04-15T05:30:34;8.40;99.90
48946;DHT22;34999;50.940;3.998;2023-04-15T05:33:03;8.40;99.90
48946;DHT22;34999;50.940;3.998;2023-04-15T05:35:31;8.50;99.90
48946;DHT22;34999;50.940;3.998;2023-04-15T05:37:59;8.50;99.90
48946;DHT22;34999;50.940;3.998;2023-04-15T05:40:28;8.50;99.90
48946;DHT22;34999;50.940;3.998;2023-04-15T05:42:57;8.50;99.90
48946;DHT22;34999;50.940;3.998;2023-04-15T05:45:25;8.60;99.90
48946;DHT22;34999;50.940;3.998;2023-04-15T05:47:55;8.60;99.90
48946;DHT22;34999;50.940;3.998;2023-04-15T05:50:23;8.60;99.90
48946;DHT22;34999;50.940;3.998;2023-04-15T05:52:52;8.70;99.90
48946;DHT22;34999;50.940;3.998;2023-04-15T05:55:20;8.70;99.90
48946;DHT22;34999;50.940;3.998;2023-04-15T05:57:49;8.80;99.90
48946;DHT22;34999;50.940;3.998;2023-04-15T06:00:18;8.80;99.90
48946;DHT22;34999;50.940;3.998;2023-04-15T06:02:47;8.90;99.90
48946;DHT22;34999;50.940;3.998;2023-04-15T06:05:17;8.90;99.90
48946;DHT22;34999;50.940;3.998;2023-04-15T06:07:45;9.00;99.90
48946;DHT22;34999;50.940;3.998;2023-04-15T06:10:14;9.00;99.90
48946;DHT22;34999;50.940;3.998;2023-04-15T06:12:43;9.00;99.90
48946;DHT22;34999;50.940;3.998;2023-04-15T06:15:11;9.10;99.90
48946;DHT22;34999;50.940;3.998;2023-04-15T06:17:39;9.20;99.90
48946;DHT22;34999;50.940;3.998;2023-04-15T06:20:09;9.20;99.90
48946;DHT22;34999;50.940;3.998;2023-04-15T06:22:38;9.20;99.90
48946;DHT22;34999;50.940;3.998;2023-04-15T06:25:07;9.30;99.90
48946;DHT22;34999;50.940;3.998;2023-04-15T06:27:36;9.30;99.90
48946;DHT22;34999;50.940;3.998;2023-04-15T06:30:06;9.40;99.90
48946;DHT22;34999;50.940;3.998;2023-04-15T06:32:34;9.50;99.90
48946;DHT22;34999;50.940;3.998;2023-04-15T06:35:03;9.60;99.90
48946;DHT22;34999;50.940;3.998;2023-04-15T06:37:31;9.80;99.90
48946;DHT22;34999;50.940;3.998;2023-04-15T06:40:01;9.90;99.90
48946;DHT22;34999;50.940;3.998;2023-04-15T06:42:31;10.00;99.90
48946;DHT22;34999;50.940;3.998;2023-04-15T06:45:03;10.10;99.90
48946;DHT22;34999;50.940;3.998;2023-04-15T06:47:31;10.20;99.90
48946;DHT22;34999;50.940;3.998;2023-04-15T06:49:59;10.30;99.90
48946;DHT22;34999;50.940;3.998;2023-04-15T06:52:28;10.30;99.90
48946;DHT22;34999;50.940;3.998;2023-04-15T06:54:56;10.50;99.90
48946;DHT22;34999;50.940;3.998;2023-04-15T06:57:26;10.60;99.90
48946;DHT22;34999;50.940;3.998;2023-04-15T06:59:55;10.80;99.90
48946;DHT22;34999;50.940;3.998;2023-04-15T07:02:23;10.80;99.90
48946;DHT22;34999;50.940;3.998;2023-04-15T07:04:52;10.90;99.90
48946;DHT22;34999;50.940;3.998;2023-04-15T07:07:20;11.20;99.90
48946;DHT22;34999;50.940;3.998;2023-04-15T07:09:48;11.40;99.90
48946;DHT22;34999;50.940;3.998;2023-04-15T07:12:17;11.70;99.90
48946;DHT22;34999;50.940;3.998;2023-04-15T07:14:46;12.10;99.90
48946;DHT22;34999;50.940;3.998;2023-04-15T07:17:15;12.40;99.90
48946;DHT22;34999;50.940;3.998;2023-04-15T07:19:43;12.60;99.90
48946;DHT22;34999;50.940;3.998;2023-04-15T07:22:12;12.70;99.90
48946;DHT22;34999;50.940;3.998;2023-04-15T07:24:40;12.60;99.90
48946;DHT22;34999;50.940;3.998;2023-04-15T07:27:08;12.60;99.90
48946;DHT22;34999;50.940;3.998;2023-04-15T07:29:36;12.80;99.90
48946;DHT22;34999;50.940;3.998;2023-04-15T07:32:06;12.70;99.90
48946;DHT22;34999;50.940;3.998;2023-04-15T07:34:36;12.60;99.90
48946;DHT22;34999;50.940;3.998;2023-04-15T07:37:04;12.60;99.90
48946;DHT22;34999;50.940;3.998;2023-04-15T07:39:32;12.50;99.90
48946;DHT22;34999;50.940;3.998;2023-04-15T07:42:00;12.40;99.90
48946;DHT22;34999;50.940;3.998;2023-04-15T07:44:29;12.50;99.90
48946;DHT22;34999;50.940;3.998;2023-04-15T07:46:58;12.60;99.90
48946;DHT22;34999;50.940;3.998;2023-04-15T07:49:27;12.50;99.90
48946;DHT22;34999;50.940;3.998;2023-04-15T07:51:56;12.70;99.90
48946;DHT22;34999;50.940;3.998;2023-04-15T07:54:26;12.70;99.90
48946;DHT22;34999;50.940;3.998;2023-04-15T07:56:54;12.70;99.90
48946;DHT22;34999;50.940;3.998;2023-04-15T07:59:23;12.90;99.90
48946;DHT22;34999;50.940;3.998;2023-04-15T08:01:51;13.20;99.90
48946;DHT22;34999;50.940;3.998;2023-04-15T08:04:20;13.50;99.90
48946;DHT22;34999;50.940;3.998;2023-04-15T08:06:49;13.80;99.90
48946;DHT22;34999;50.940;3.998;2023-04-15T08:09:18;14.30;99.90
48946;DHT22;34999;50.940;3.998;2023-04-15T08:11:48;14.80;99.90
48946;DHT22;34999;50.940;3.998;2023-04-15T08:14:16;15.00;99.90
48946;DHT22;34999;50.940;3.998;2023-04-15T08:16:44;15.30;99.90
48946;DHT22;34999;50.940;3.998;2023-04-15T08:19:13;15.70;99.90
48946;DHT22;34999;50.940;3.998;2023-04-15T08:21:41;16.30;99.90
48946;DHT22;34999;50.940;3.998;2023-04-15T08:24:11;16.70;99.90
48946;DHT22;34999;50.940;3.998;2023-04-15T08:26:39;17.10;99.90
48946;DHT22;34999;50.940;3.998;2023-04-15T08:29:07;17.70;99.90
48946;DHT22;34999;50.940;3.998;2023-04-15T08:31:36;17.90;99.90
48946;DHT22;34999;50.940;3.998;2023-04-15T08:34:04;18.30;99.90
48946;DHT22;34999;50.940;3.998;2023-04-15T08:36:33;18.50;99.90
48946;DHT22;34999;50.940;3.998;2023-04-15T08:39:01;18.70;99.90
48946;DHT22;34999;50.940;3.998;2023-04-15T08:41:37;18.20;99.90
48946;DHT22;34999;50.940;3.998;2023-04-15T08:44:07;18.20;99.90
48946;DHT22;34999;50.940;3.998;2023-04-15T08:46:35;18.30;99.90
48946;DHT22;34999;50.940;3.998;2023-04-15T08:49:08;18.10;99.90
48946;DHT22;34999;50.940;3.998;2023-04-15T08:51:38;18.40;99.90
48946;DHT22;34999;50.940;3.998;2023-04-15T08:54:07;18.80;99.90
48946;DHT22;34999;50.940;3.998;2023-04-15T08:56:38;19.10;99.90
48946;DHT22;34999;50.940;3.998;2023-04-15T08:59:06;18.70;99.90
48946;DHT22;34999;50.940;3.998;2023-04-15T09:01:37;18.80;99.90
48946;DHT22;34999;50.940;3.998;2023-04-15T09:04:06;19.10;99.90
48946;DHT22;34999;50.940;3.998;2023-04-15T09:06:35;19.40;99.90
48946;DHT22;34999;50.940;3.998;2023-04-15T09:09:03;19.30;99.90
48946;DHT22;34999;50.940;3.998;2023-04-15T09:11:31;19.40;99.90
48946;DHT22;34999;50.940;3.998;2023-04-15T09:14:01;18.90;99.90
48946;DHT22;34999;50.940;3.998;2023-04-15T09:16:29;18.80;99.90
48946;DHT22;34999;50.940;3.998;2023-04-15T09:18:58;18.40;99.90
48946;DHT22;34999;50.940;3.998;2023-04-15T09:21:27;18.20;99.90
48946;DHT22;34999;50.940;3.998;2023-04-15T09:23:56;18.20;99.90
48946;DHT22;34999;50.940;3.998;2023-04-15T09:26:32;18.20;99.90
48946;DHT22;34999;50.940;3.998;2023-04-15T09:29:06;18.20;99.90
48946;DHT22;34999;50.940;3.998;2023-04-15T09:31:35;18.10;99.90
48946;DHT22;34999;50.940;3.998;2023-04-15T09:34:03;18.30;99.90
48946;DHT22;34999;50.940;3.998;2023-04-15T09:36:52;18.20;99.90
48946;DHT22;34999;50.940;3.998;2023-04-15T09:39:21;18.60;99.90
48946;DHT22;34999;50.940;3.998;2023-04-15T09:42:04;19.10;99.90
48946;DHT22;34999;50.940;3.998;2023-04-15T09:44:35;19.50;99.90
48946;DHT22;34999;50.940;3.998;2023-04-15T09:47:05;19.40;99.90
48946;DHT22;34999;50.940;3.998;2023-04-15T09:49:33;19.50;99.90
48946;DHT22;34999;50.940;3.998;2023-04-15T09:52:02;20.00;99.90
48946;DHT22;34999;50.940;3.998;2023-04-15T09:54:36;20.60;99.90
48946;DHT22;34999;50.940;3.998;2023-04-15T09:57:06;21.50;99.90
48946;DHT22;34999;50.940;3.998;2023-04-15T09:59:37;21.70;99.90
48946;DHT22;34999;50.940;3.998;2023-04-15T10:02:05;21.30;99.90
48946;DHT22;34999;50.940;3.998;2023-04-15T10:04:35;20.80;99.90
48946;DHT22;34999;50.940;3.998;2023-04-15T10:07:06;21.20;99.90
48946;DHT22;34999;50.940;3.998;2023-04-15T10:09:36;21.70;99.90
48946;DHT22;34999;50.940;3.998;2023-04-15T10:12:05;22.40;99.90
48946;DHT22;34999;50.940;3.998;2023-04-15T10:14:34;22.90;99.90
48946;DHT22;34999;50.940;3.998;2023-04-15T10:17:07;23.80;99.90
48946;DHT22;34999;50.940;3.998;2023-04-15T10:19:38;24.20;99.90
48946;DHT22;34999;50.940;3.998;2023-04-15T10:22:06;24.50;99.70
48946;DHT22;34999;50.940;3.998;2023-04-15T10:24:35;23.70;98.70
48946;DHT22;34999;50.940;3.998;2023-04-15T10:27:06;23.50;96.70
48946;DHT22;34999;50.940;3.998;2023-04-15T10:29:35;23.80;95.40
48946;DHT22;34999;50.940;3.998;2023-04-15T10:32:04;23.80;98.50
48946;DHT22;34999;50.940;3.998;2023-04-15T10:34:34;23.70;91.60
48946;DHT22;34999;50.940;3.998;2023-04-15T10:37:07;22.00;93.00
48946;DHT22;34999;50.940;3.998;2023-04-15T10:39:41;21.30;91.70
48946;DHT22;34999;50.940;3.998;2023-04-15T10:42:11;21.80;94.20
48946;DHT22;34999;50.940;3.998;2023-04-15T10:44:41;22.30;92.80
48946;DHT22;34999;50.940;3.998;2023-04-15T10:47:11;22.20;94.00
48946;DHT22;34999;50.940;3.998;2023-04-15T10:49:45;21.70;95.50
48946;DHT22;34999;50.940;3.998;2023-04-15T10:52:15;22.00;95.20
48946;DHT22;34999;50.940;3.998;2023-04-15T10:54:44;22.10;96.10
48946;DHT22;34999;50.940;3.998;2023-04-15T10:57:20;21.60;99.70
48946;DHT22;34999;50.940;3.998;2023-04-15T11:00:00;21.70;96.70
48946;DHT22;34999;50.940;3.998;2023-04-15T11:02:51;20.60;97.00
48946;DHT22;34999;50.940;3.998;2023-04-15T11:05:22;20.60;99.40
48946;DHT22;34999;50.940;3.998;2023-04-15T11:07:52;21.30;96.90
48946;DHT22;34999;50.940;3.998;2023-04-15T11:10:51;21.70;94.80
48946;DHT22;34999;50.940;3.998;2023-04-15T11:13:26;20.40;96.10
48946;DHT22;34999;50.940;3.998;2023-04-15T11:16:01;20.50;96.90
48946;DHT22;34999;50.940;3.998;2023-04-15T11:18:31;20.60;93.90
48946;DHT22;34999;50.940;3.998;2023-04-15T11:21:03;20.40;92.30
48946;DHT22;34999;50.940;3.998;2023-04-15T11:23:34;20.20;92.40
48946;DHT22;34999;50.940;3.998;2023-04-15T11:26:04;20.80;94.20
48946;DHT22;34999;50.940;3.998;2023-04-15T11:28:36;20.10;92.40
48946;DHT22;34999;50.940;3.998;2023-04-15T11:31:07;19.60;93.20
48946;DHT22;34999;50.940;3.998;2023-04-15T11:33:43;19.30;92.90
48946;DHT22;34999;50.940;3.998;2023-04-15T11:36:13;20.10;96.60
48946;DHT22;34999;50.940;3.998;2023-04-15T11:38:42;21.10;97.40
48946;DHT22;34999;50.940;3.998;2023-04-15T11:41:11;21.60;95.00
48946;DHT22;34999;50.940;3.998;2023-04-15T11:43:41;22.00;93.70
48946;DHT22;34999;50.940;3.998;2023-04-15T11:46:09;21.90;93.70
48946;DHT22;34999;50.940;3.998;2023-04-15T11:48:41;21.90;93.00
48946;DHT22;34999;50.940;3.998;2023-04-15T11:51:11;21.50;92.20
48946;DHT22;34999;50.940;3.998;2023-04-15T11:53:42;20.90;92.40
48946;DHT22;34999;50.940;3.998;2023-04-15T11:56:16;21.00;91.90
48946;DHT22;34999;50.940;3.998;2023-04-15T11:58:45;21.40;92.00
48946;DHT22;34999;50.940;3.998;2023-04-15T12:01:14;20.60;89.50
48946;DHT22;34999;50.940;3.998;2023-04-15T12:03:43;20.70;88.70
48946;DHT22;34999;50.940;3.998;2023-04-15T12:06:15;20.50;90.90
48946;DHT22;34999;50.940;3.998;2023-04-15T12:09:06;19.80;90.00
48946;DHT22;34999;50.940;3.998;2023-04-15T12:11:40;19.40;92.70
48946;DHT22;34999;50.940;3.998;2023-04-15T12:14:11;19.50;93.80
48946;DHT22;34999;50.940;3.998;2023-04-15T12:16:41;19.80;91.00
48946;DHT22;34999;50.940;3.998;2023-04-15T12:19:17;20.30;93.30
48946;DHT22;34999;50.940;3.998;2023-04-15T12:21:47;20.20;88.60
48946;DHT22;34999;50.940;3.998;2023-04-15T12:24:19;19.50;90.00
48946;DHT22;34999;50.940;3.998;2023-04-15T12:26:50;18.90;90.80
48946;DHT22;34999;50.940;3.998;2023-04-15T12:29:19;18.80;97.20
48946;DHT22;34999;50.940;3.998;2023-04-15T12:31:49;19.40;95.50
48946;DHT22;34999;50.940;3.998;2023-04-15T12:34:25;19.60;90.80
48946;DHT22;34999;50.940;3.998;2023-04-15T12:36:55;19.70;91.00
48946;DHT22;34999;50.940;3.998;2023-04-15T12:39:28;19.60;90.40
48946;DHT22;34999;50.940;3.998;2023-04-15T12:41:57;19.60;90.30
48946;DHT22;34999;50.940;3.998;2023-04-15T12:44:27;19.20;86.50
48946;DHT22;34999;50.940;3.998;2023-04-15T12:46:55;18.60;92.00
48946;DHT22;34999;50.940;3.998;2023-04-15T12:49:24;18.80;91.50
48946;DHT22;34999;50.940;3.998;2023-04-15T12:51:55;19.00;94.80
48946;DHT22;34999;50.940;3.998;2023-04-15T12:54:23;19.10;91.90
48946;DHT22;34999;50.940;3.998;2023-04-15T12:56:54;18.90;96.10
48946;DHT22;34999;50.940;3.998;2023-04-15T12:59:22;18.80;93.90
48946;DHT22;34999;50.940;3.998;2023-04-15T13:01:51;18.70;99.90
48946;DHT22;34999;50.940;3.998;2023-04-15T13:04:20;19.00;99.90
48946;DHT22;34999;50.940;3.998;2023-04-15T13:06:49;19.20;99.70
48946;DHT22;34999;50.940;3.998;2023-04-15T13:09:17;19.40;99.30
48946;DHT22;34999;50.940;3.998;2023-04-15T13:11:46;19.40;97.40
48946;DHT22;34999;50.940;3.998;2023-04-15T13:14:15;19.30;98.50
48946;DHT22;34999;50.940;3.998;2023-04-15T13:16:44;19.20;96.50
48946;DHT22;34999;50.940;3.998;2023-04-15T13:19:12;18.90;96.90
48946;DHT22;34999;50.940;3.998;2023-04-15T13:21:40;19.00;97.30
48946;DHT22;34999;50.940;3.998;2023-04-15T13:24:09;19.30;99.40
48946;DHT22;34999;50.940;3.998;2023-04-15T13:26:37;19.20;95.90
48946;DHT22;34999;50.940;3.998;2023-04-15T13:29:05;19.10;98.20
48946;DHT22;34999;50.940;3.998;2023-04-15T13:31:35;19.10;96.50
48946;DHT22;34999;50.940;3.998;2023-04-15T13:34:03;18.70;95.10
48946;DHT22;34999;50.940;3.998;2023-04-15T13:36:32;18.60;98.20
48946;DHT22;34999;50.940;3.998;2023-04-15T13:39:01;18.70;95.30
48946;DHT22;34999;50.940;3.998;2023-04-15T13:41:31;18.60;96.50
48946;DHT22;34999;50.940;3.998;2023-04-15T13:43:59;18.90;99.30
48946;DHT22;34999;50.940;3.998;2023-04-15T13:46:28;19.20;98.70
48946;DHT22;34999;50.940;3.998;2023-04-15T13:48:57;19.20;97.90
48946;DHT22;34999;50.940;3.998;2023-04-15T13:51:25;19.30;99.10
48946;DHT22;34999;50.940;3.998;2023-04-15T13:53:54;19.40;98.50
48946;DHT22;34999;50.940;3.998;2023-04-15T13:56:22;19.40;98.40
48946;DHT22;34999;50.940;3.998;2023-04-15T13:58:52;19.40;97.70
48946;DHT22;34999;50.940;3.998;2023-04-15T14:01:20;18.90;98.30
48946;DHT22;34999;50.940;3.998;2023-04-15T14:03:49;18.90;98.70
48946;DHT22;34999;50.940;3.998;2023-04-15T14:06:18;19.00;98.90
48946;DHT22;34999;50.940;3.998;2023-04-15T14:08:47;19.10;98.20
48946;DHT22;34999;50.940;3.998;2023-04-15T14:11:15;18.90;98.70
48946;DHT22;34999;50.940;3.998;2023-04-15T14:13:43;19.20;98.30
48946;DHT22;34999;50.940;3.998;2023-04-15T14:16:11;19.20;95.70
48946;DHT22;34999;50.940;3.998;2023-04-15T14:18:40;19.20;98.80
48946;DHT22;34999;50.940;3.998;2023-04-15T14:21:08;19.40;99.00
48946;DHT22;34999;50.940;3.998;2023-04-15T14:23:38;19.60;99.80
48946;DHT22;34999;50.940;3.998;2023-04-15T14:26:06;19.60;97.30
48946;DHT22;34999;50.940;3.998;2023-04-15T14:28:34;19.80;97.50
48946;DHT22;34999;50.940;3.998;2023-04-15T14:31:06;19.50;99.40
48946;DHT22;34999;50.940;3.998;2023-04-15T14:33:34;19.20;98.30
48946;DHT22;34999;50.940;3.998;2023-04-15T14:36:02;19.10;98.30
48946;DHT22;34999;50.940;3.998;2023-04-15T14:38:32;18.80;99.50
48946;DHT22;34999;50.940;3.998;2023-04-15T14:41:06;19.00;99.90
48946;DHT22;34999;50.940;3.998;2023-04-15T14:43:34;19.50;99.90
48946;DHT22;34999;50.940;3.998;2023-04-15T14:46:03;19.80;99.90
48946;DHT22;34999;50.940;3.998;2023-04-15T14:48:31;20.00;99.90
48946;DHT22;34999;50.940;3.998;2023-04-15T14:50:59;20.10;99.90
48946;DHT22;34999;50.940;3.998;2023-04-15T14:53:28;20.10;99.90
48946;DHT22;34999;50.940;3.998;2023-04-15T14:55:56;19.50;99.90
48946;DHT22;34999;50.940;3.998;2023-04-15T14:58:26;19.40;99.90
48946;DHT22;34999;50.940;3.998;2023-04-15T15:00:54;18.90;99.90
48946;DHT22;34999;50.940;3.998;2023-04-15T15:03:22;19.10;99.90
48946;DHT22;34999;50.940;3.998;2023-04-15T15:05:51;19.30;99.90
48946;DHT22;34999;50.940;3.998;2023-04-15T15:08:19;19.50;99.90
48946;DHT22;34999;50.940;3.998;2023-04-15T15:10:48;19.60;99.90
48946;DHT22;34999;50.940;3.998;2023-04-15T15:13:17;19.50;99.90
48946;DHT22;34999;50.940;3.998;2023-04-15T15:15:47;19.50;99.90
48946;DHT22;34999;50.940;3.998;2023-04-15T15:18:16;19.50;99.90
48946;DHT22;34999;50.940;3.998;2023-04-15T15:20:45;19.30;99.90
48946;DHT22;34999;50.940;3.998;2023-04-15T15:23:13;19.20;99.90
48946;DHT22;34999;50.940;3.998;2023-04-15T15:25:42;19.20;99.90
48946;DHT22;34999;50.940;3.998;2023-04-15T15:28:11;19.10;99.90
48946;DHT22;34999;50.940;3.998;2023-04-15T15:30:39;18.90;99.90
48946;DHT22;34999;50.940;3.998;2023-04-15T15:33:08;18.90;99.90
48946;DHT22;34999;50.940;3.998;2023-04-15T15:35:37;18.80;99.90
48946;DHT22;34999;50.940;3.998;2023-04-15T15:38:05;18.80;99.90
48946;DHT22;34999;50.940;3.998;2023-04-15T15:40:34;18.90;99.90
48946;DHT22;34999;50.940;3.998;2023-04-15T15:43:03;19.10;99.90
48946;DHT22;34999;50.940;3.998;2023-04-15T15:45:31;19.20;99.90
48946;DHT22;34999;50.940;3.998;2023-04-15T15:48:00;19.00;99.90
48946;DHT22;34999;50.940;3.998;2023-04-15T15:50:30;18.80;99.90